createdAt,value
2022-12-17T00:04:52.178Z,-2
2022-12-17T00:11:15.330Z,-1.99
2022-12-17T00:17:35.210Z,-2
2022-12-17T00:23:58.173Z,-2.08
2022-12-17T00:30:18.191Z,-2.21
2022-12-17T00:36:41.255Z,-2.28
2022-12-17T00:43:01.230Z,-2.32
2022-12-17T00:49:24.292Z,-2.35
2022-12-17T00:55:44.242Z,-2.36
2022-12-17T01:02:07.301Z,-2.36
2022-12-17T01:08:27.222Z,-2.43
2022-12-17T01:14:50.256Z,-2.46
2022-12-17T01:21:10.181Z,-2.43
2022-12-17T01:27:33.347Z,-2.49
2022-12-17T01:33:53.251Z,-2.54
2022-12-17T01:40:16.182Z,-2.57
2022-12-17T01:46:36.281Z,-2.57
2022-12-17T01:52:59.258Z,-2.58
2022-12-17T01:59:19.335Z,-2.6
2022-12-17T02:05:42.225Z,-2.66
2022-12-17T02:12:02.172Z,-2.7
2022-12-17T02:18:25.236Z,-2.76
2022-12-17T02:24:45.230Z,-2.78
2022-12-17T02:31:08.259Z,-2.82
2022-12-17T02:37:28.184Z,-2.83
2022-12-17T02:43:51.191Z,-2.92
2022-12-17T02:50:11.211Z,-2.99
2022-12-17T02:56:34.192Z,-3.01
2022-12-17T03:02:54.258Z,-3.06
2022-12-17T03:09:17.199Z,-3.1
2022-12-17T03:15:37.184Z,-3.11
2022-12-17T03:22:00.204Z,-3.2
2022-12-17T03:28:20.267Z,-3.2
2022-12-17T03:34:43.182Z,-3.19
2022-12-17T03:41:03.156Z,-3.23
2022-12-17T03:47:26.203Z,-3.3
2022-12-17T03:53:46.181Z,-3.3
2022-12-17T04:00:09.234Z,-3.31
2022-12-17T04:24:09.095Z,-3.46
2022-12-17T04:30:29.179Z,-3.49
2022-12-17T04:36:52.182Z,-3.57
2022-12-17T04:43:12.174Z,-3.64
2022-12-17T04:49:35.203Z,-3.72
2022-12-17T04:55:55.153Z,-3.68
2022-12-17T05:02:18.395Z,-3.66
2022-12-17T05:08:41.516Z,-3.69
2022-12-17T05:15:02.214Z,-3.67
2022-12-17T05:21:22.427Z,-3.69
2022-12-17T05:27:45.410Z,-3.72
2022-12-17T05:34:05.280Z,-3.79
2022-12-17T05:40:28.220Z,-3.94
2022-12-17T05:46:48.254Z,-4.03
2022-12-17T05:53:11.239Z,-3.99
2022-12-17T05:59:31.223Z,-3.94
2022-12-17T06:05:54.157Z,-4.02
2022-12-17T06:12:14.161Z,-4.05
2022-12-17T06:18:37.186Z,-4.08
2022-12-17T06:24:57.340Z,-4.12
2022-12-17T06:31:20.205Z,-4.1
2022-12-17T06:37:40.171Z,-4.12
2022-12-17T06:44:03.162Z,-4.16
2022-12-17T06:50:23.155Z,-4.21
2022-12-17T06:56:46.261Z,-4.21
2022-12-17T07:03:08.881Z,-4.23
2022-12-17T07:09:29.171Z,-4.27
2022-12-17T07:15:49.315Z,-4.26
2022-12-17T07:22:12.275Z,-4.29
2022-12-17T07:28:32.190Z,-4.29
2022-12-17T07:34:55.272Z,-4.3
2022-12-17T07:41:15.406Z,-4.33
2022-12-17T07:47:38.250Z,-4.32
2022-12-17T07:53:58.234Z,-4.35
2022-12-17T08:00:21.220Z,-4.31
2022-12-17T08:06:41.164Z,-4.34
2022-12-17T08:13:06.378Z,-4.34
2022-12-17T08:19:24.307Z,-4.34
2022-12-17T08:25:47.151Z,-4.35
2022-12-17T08:32:07.207Z,-4.39
2022-12-17T08:38:30.175Z,-4.41
2022-12-17T08:44:50.260Z,-4.34
2022-12-17T08:51:13.207Z,-4.3
2022-12-17T08:57:33.153Z,-4.24
2022-12-17T09:03:56.269Z,-4.21
2022-12-17T09:10:16.184Z,-4.11
2022-12-17T09:33:29.197Z,-4.1
2022-12-17T09:39:52.197Z,-4.05
2022-12-17T09:46:12.224Z,-3.99
2022-12-17T09:52:35.214Z,-3.92
2022-12-17T09:58:55.197Z,-3.89
2022-12-17T10:05:18.235Z,-3.76
2022-12-17T10:11:38.318Z,-3.63
2022-12-17T10:18:01.176Z,-3.48
2022-12-17T10:24:21.177Z,-3.4
2022-12-17T10:30:44.224Z,-3.23
2022-12-17T10:37:04.166Z,-3.05
2022-12-17T10:43:27.152Z,-2.95
2022-12-17T10:49:47.196Z,-2.97
2022-12-17T10:56:10.179Z,-2.81
2022-12-17T11:02:30.447Z,-2.81
2022-12-17T11:08:53.190Z,-2.7
2022-12-17T11:15:13.243Z,-2.53
2022-12-17T11:21:36.223Z,-2.34
2022-12-17T11:27:56.285Z,-2.24
2022-12-17T11:34:19.308Z,-2.13
2022-12-17T11:40:39.161Z,-2.12
2022-12-17T11:47:02.290Z,-2.03
2022-12-17T11:53:27.658Z,-1.8
2022-12-17T11:59:49.465Z,-1.72
2022-12-17T12:06:05.233Z,-1.68
2022-12-17T12:12:28.329Z,-1.55
2022-12-17T12:18:48.373Z,-1.35
2022-12-17T12:25:11.195Z,-1.18
2022-12-17T12:31:31.247Z,-1.06
2022-12-17T12:37:54.280Z,-1.03
2022-12-17T12:44:14.217Z,-0.86
2022-12-17T12:50:37.253Z,-0.88
2022-12-17T12:56:57.247Z,-1.03
2022-12-17T13:03:22.187Z,-1.16
2022-12-17T13:09:40.299Z,-1.17
2022-12-17T13:16:03.269Z,-1.06
2022-12-17T13:22:24.367Z,-0.89
2022-12-17T13:28:46.204Z,-0.89
2022-12-17T13:35:10.221Z,-0.92
2022-12-17T13:41:29.294Z,-1.1
2022-12-17T13:47:49.265Z,-1.21
2022-12-17T13:54:12.219Z,-1.35
2022-12-17T14:00:32.186Z,-1.48
2022-12-17T14:06:55.261Z,-1.54
2022-12-17T14:13:15.350Z,-1.54
2022-12-17T14:36:56.173Z,-1.82
2022-12-17T14:43:19.163Z,-1.96
2022-12-17T14:49:39.278Z,-2.09
2022-12-17T14:56:02.183Z,-2.15
2022-12-17T15:02:22.356Z,-2.26
2022-12-17T15:08:45.165Z,-2.28
2022-12-17T15:15:05.250Z,-2.41
2022-12-17T15:21:28.513Z,-2.51
2022-12-17T15:27:48.204Z,-2.54
2022-12-17T15:34:11.222Z,-2.62
2022-12-17T15:40:31.368Z,-2.74
2022-12-17T15:46:54.262Z,-2.83
2022-12-17T15:53:14.295Z,-2.92
2022-12-17T15:59:37.210Z,-3.02
2022-12-17T16:05:57.208Z,-3.1
2022-12-17T16:12:20.201Z,-3.22
2022-12-17T16:18:40.418Z,-3.3
2022-12-17T16:25:03.208Z,-3.38
2022-12-17T16:31:24.500Z,-3.46
2022-12-17T16:37:47.226Z,-3.49
2022-12-17T16:44:07.214Z,-3.52
2022-12-17T16:50:30.369Z,-3.64
2022-12-17T16:56:50.245Z,-3.75
2022-12-17T17:03:13.405Z,-3.82
2022-12-17T17:09:33.196Z,-3.92
2022-12-17T17:15:56.206Z,-3.96
2022-12-17T17:22:16.141Z,-3.98
2022-12-17T17:28:39.588Z,-4.04
2022-12-17T17:34:59.154Z,-4.1
2022-12-17T17:41:22.227Z,-4.12
2022-12-17T17:47:42.219Z,-4.16
2022-12-17T17:54:08.356Z,-4.18
2022-12-17T18:00:25.171Z,-4.19
2022-12-17T18:07:09.024Z,-4.22
2022-12-17T18:13:08.178Z,-4.28
2022-12-17T18:19:31.204Z,-4.36
2022-12-17T18:25:51.231Z,-4.42
2022-12-17T18:32:14.183Z,-4.45
2022-12-17T18:38:34.381Z,-4.5
2022-12-17T18:44:57.567Z,-4.52
2022-12-17T18:51:17.242Z,-4.55
2022-12-17T18:57:40.173Z,-4.6
2022-12-17T19:04:00.187Z,-4.68
2022-12-17T19:10:23.178Z,-4.75
2022-12-17T19:16:43.285Z,-4.82
2022-12-17T19:23:06.321Z,-4.83
2022-12-17T19:41:15.697Z,-5.07
2022-12-17T19:47:35.176Z,-5.09
2022-12-17T19:54:00.689Z,-5.08
2022-12-17T20:00:18.181Z,-5.16
2022-12-17T20:06:41.192Z,-5.27
2022-12-17T20:13:01.175Z,-5.35
2022-12-17T20:19:24.269Z,-5.46
2022-12-17T20:25:44.192Z,-5.48
2022-12-17T20:32:08.353Z,-5.44
2022-12-17T20:38:28.198Z,-5.49
2022-12-17T20:44:53.500Z,-5.58
2022-12-17T20:51:11.145Z,-5.59
2022-12-17T20:57:34.299Z,-5.65
2022-12-17T21:03:54.241Z,-5.65
2022-12-17T21:10:17.228Z,-5.64
2022-12-17T21:16:37.287Z,-5.67
2022-12-17T21:23:00.203Z,-5.72
2022-12-17T21:29:20.378Z,-5.79
2022-12-17T21:35:43.233Z,-5.83
2022-12-17T21:42:03.205Z,-5.9
2022-12-17T21:48:26.170Z,-5.97
2022-12-17T21:54:46.185Z,-5.92
2022-12-17T22:01:09.200Z,-5.88
2022-12-17T22:07:30.360Z,-5.84
2022-12-17T22:13:52.230Z,-5.85
2022-12-17T22:20:12.299Z,-5.85
2022-12-17T22:26:35.180Z,-5.81
2022-12-17T22:32:55.205Z,-5.81
2022-12-17T22:40:24.399Z,-5.91
2022-12-17T22:45:40.007Z,-5.96
2022-12-17T22:52:03.860Z,-6.03
2022-12-17T22:58:24.200Z,-6.01
2022-12-17T23:21:21.223Z,-6.11
2022-12-17T23:27:41.167Z,-5.99
2022-12-17T23:34:04.230Z,-6
2022-12-17T23:40:25.395Z,-6.07
2022-12-17T23:46:48.604Z,-6.12
2022-12-17T23:53:08.226Z,-6.21
2022-12-17T23:59:31.255Z,-6.27
